createdAt,value
2022-09-06T00:02:18.784Z,3.17
2022-09-06T00:05:06.824Z,3.35
2022-09-06T00:07:53.907Z,3.15
2022-09-06T00:10:42.240Z,2.80
2022-09-06T00:13:29.018Z,2.95
2022-09-06T00:16:20.989Z,3.40
2022-09-06T00:19:07.814Z,3.08
2022-09-06T00:21:54.577Z,2.97
2022-09-06T00:24:41.439Z,3.10
2022-09-06T00:27:28.607Z,3.05
2022-09-06T00:30:15.402Z,3.20
2022-09-06T00:33:02.167Z,3.03
2022-09-06T00:35:49.281Z,2.78
2022-09-06T00:38:36.431Z,3.00
2022-09-06T00:41:23.263Z,3.30
2022-09-06T00:44:10.079Z,2.95
2022-09-06T00:46:56.850Z,2.67
2022-09-06T00:49:51.355Z,2.70
2022-09-06T00:52:39.255Z,2.50
2022-09-06T00:58:13.468Z,3.22
2022-09-06T01:01:00.304Z,2.75
2022-09-06T01:03:47.143Z,3.08
2022-09-06T01:07:00.655Z,3.20
2022-09-06T01:10:24.423Z,3.03
2022-09-06T01:13:24.695Z,3.33
2022-09-06T01:16:43.919Z,3.20
2022-09-06T01:19:56.327Z,3.50
2022-09-06T01:23:01.013Z,3.28
2022-09-06T01:26:05.939Z,3.47
2022-09-06T01:28:53.915Z,3.92
2022-09-06T01:31:54.509Z,4.13
2022-09-06T01:34:48.646Z,4.00
2022-09-06T01:37:35.634Z,3.60
2022-09-06T01:40:22.562Z,3.97
2022-09-06T01:43:12.893Z,3.93
2022-09-06T01:46:05.488Z,3.60
2022-09-06T01:49:07.402Z,4.55
2022-09-06T01:52:03.830Z,3.70
2022-09-06T01:55:02.525Z,3.63
2022-09-06T01:58:04.698Z,3.45
2022-09-06T02:01:14.221Z,3.47
2022-09-06T02:04:12.818Z,3.28
2022-09-06T02:07:03.446Z,2.88
2022-09-06T02:09:56.092Z,3.17
2022-09-06T02:12:45.783Z,3.47
2022-09-06T02:15:36.243Z,3.20
2022-09-06T02:18:41.819Z,3.25
2022-09-06T02:21:33.224Z,2.92
2022-09-06T02:24:24.020Z,3.25
2022-09-06T02:27:12.708Z,3.05
2022-09-06T02:29:59.709Z,3.25
2022-09-06T02:33:08.727Z,2.80
2022-09-06T02:35:56.043Z,2.80
2022-09-06T02:38:45.189Z,3.10
2022-09-06T02:41:33.328Z,2.90
2022-09-06T02:44:20.057Z,3.03
2022-09-06T02:47:07.211Z,2.80
2022-09-06T02:49:53.953Z,3.13
2022-09-06T02:52:40.979Z,2.78
2022-09-06T02:55:27.708Z,2.60
2022-09-06T02:58:15.309Z,2.60
2022-09-06T03:01:02.146Z,3.20
2022-09-06T03:03:48.940Z,5.50
2022-09-06T03:06:35.718Z,4.35
2022-09-06T03:09:22.483Z,4.28
2022-09-06T03:12:09.232Z,3.90
2022-09-06T03:14:56.504Z,4.45
2022-09-06T03:17:44.083Z,3.75
2022-09-06T03:20:33.911Z,3.63
2022-09-06T03:23:26.251Z,4.00
2022-09-06T03:26:13.294Z,4.10
2022-09-06T03:29:00.035Z,3.50
2022-09-06T03:31:46.802Z,3.17
2022-09-06T03:34:33.608Z,3.03
2022-09-06T03:37:20.508Z,2.92
2022-09-06T03:40:07.969Z,3.10
2022-09-06T03:42:54.824Z,2.88
2022-09-06T03:45:46.515Z,2.58
2022-09-06T03:48:33.323Z,2.35
2022-09-06T03:51:21.039Z,2.45
2022-09-06T03:54:07.786Z,2.47
2022-09-06T03:56:54.735Z,2.30
2022-09-06T03:59:41.563Z,2.53
2022-09-06T04:02:28.364Z,2.30
2022-09-06T04:05:16.567Z,2.47
2022-09-06T04:08:03.668Z,3.50
2022-09-06T04:10:53.217Z,2.85
2022-09-06T04:13:39.956Z,3.22
2022-09-06T04:16:26.740Z,2.78
2022-09-06T04:19:13.565Z,3.92
2022-09-06T04:22:00.399Z,2.83
2022-09-06T04:24:47.131Z,3.55
2022-09-06T04:27:34.381Z,3.13
2022-09-06T04:30:21.306Z,3.67
2022-09-06T04:33:08.058Z,3.10
2022-09-06T04:35:57.155Z,2.88
2022-09-06T04:38:44.949Z,2.47
2022-09-06T04:44:18.319Z,2.90
2022-09-06T04:47:09.840Z,2.10
2022-09-06T04:49:56.636Z,2.20
2022-09-06T04:52:43.356Z,2.33
2022-09-06T04:55:31.327Z,1.95
2022-09-06T04:58:18.102Z,2.20
2022-09-06T05:01:04.997Z,2.40
2022-09-06T05:03:56.168Z,2.70
2022-09-06T05:06:43.809Z,2.33
2022-09-06T05:09:31.490Z,2.80
2022-09-06T05:12:18.301Z,2.80
2022-09-06T05:15:05.319Z,2.88
2022-09-06T05:17:52.140Z,2.70
2022-09-06T05:20:38.927Z,3.50
2022-09-06T05:23:26.711Z,3.47
2022-09-06T05:26:13.454Z,3.28
2022-09-06T05:29:00.240Z,3.55
2022-09-06T05:31:47.030Z,3.55
2022-09-06T05:34:33.838Z,4.00
2022-09-06T05:37:20.620Z,3.58
2022-09-06T05:40:07.992Z,3.88
2022-09-06T05:42:54.762Z,3.50
2022-09-06T05:45:41.763Z,3.22
2022-09-06T05:48:30.443Z,3.15
2022-09-06T05:51:20.650Z,3.47
2022-09-06T05:54:08.035Z,3.65
2022-09-06T05:56:54.893Z,3.70
2022-09-06T05:59:41.616Z,4.00
2022-09-06T06:02:28.620Z,3.47
2022-09-06T06:05:16.380Z,3.70
2022-09-06T06:08:03.384Z,3.95
2022-09-06T06:10:50.259Z,3.50
2022-09-06T06:13:39.594Z,3.13
2022-09-06T06:16:26.647Z,3.97
2022-09-06T06:19:14.415Z,4.40
2022-09-06T06:24:48.172Z,4.45
2022-09-06T06:27:37.060Z,3.92
2022-09-06T06:30:23.850Z,3.20
2022-09-06T06:33:10.768Z,4.47
2022-09-06T06:36:02.717Z,4.40
2022-09-06T06:38:51.719Z,4.40
2022-09-06T06:41:38.611Z,6.22
2022-09-06T06:44:27.263Z,4.77
2022-09-06T06:47:14.401Z,4.35
2022-09-06T06:50:01.310Z,4.28
2022-09-06T06:52:48.086Z,3.73
2022-09-06T06:55:34.937Z,5.47
2022-09-06T06:58:21.848Z,5.60
2022-09-06T07:01:09.870Z,5.00
2022-09-06T07:03:58.170Z,4.50
2022-09-06T07:13:10.788Z,6.10
2022-09-06T07:16:15.661Z,5.00
2022-09-06T07:19:03.117Z,4.38
2022-09-06T07:21:49.908Z,3.83
2022-09-06T07:24:36.713Z,3.90
2022-09-06T07:30:36.889Z,3.90
2022-09-06T07:33:23.915Z,3.70
2022-09-06T07:36:11.420Z,6.22
2022-09-06T07:38:58.234Z,4.95
2022-09-06T07:41:44.987Z,5.50
2022-09-06T07:44:31.734Z,4.20
2022-09-06T07:50:46.363Z,4.13
2022-09-06T07:53:35.770Z,3.90
2022-09-06T07:56:24.152Z,3.70
2022-09-06T07:59:11.060Z,3.22
2022-09-06T08:01:58.065Z,3.13
2022-09-06T08:04:47.611Z,4.10
2022-09-06T08:10:24.634Z,4.50
2022-09-06T08:13:11.490Z,5.97
2022-09-06T08:16:03.585Z,5.53
2022-09-06T08:18:58.040Z,5.05
2022-09-06T08:21:44.808Z,6.65
2022-09-06T08:24:32.811Z,6.50
2022-09-06T08:27:19.532Z,5.80
2022-09-06T08:30:07.026Z,4.90
2022-09-06T08:32:53.767Z,5.38
2022-09-06T08:35:40.542Z,5.23
2022-09-06T08:38:29.011Z,6.97
2022-09-06T08:41:37.889Z,6.57
2022-09-06T08:47:33.987Z,6.75
2022-09-06T08:50:21.896Z,8.30
2022-09-06T08:53:18.779Z,8.90
2022-09-06T08:56:23.461Z,8.30
2022-09-06T08:59:17.595Z,6.05
2022-09-06T09:02:10.569Z,5.30
2022-09-06T09:05:08.867Z,4.90
2022-09-06T09:13:56.010Z,4.60
2022-09-06T09:16:43.638Z,4.35
2022-09-06T09:19:33.451Z,4.00
2022-09-06T09:22:20.333Z,4.03
2022-09-06T09:25:09.259Z,3.30
2022-09-06T09:27:59.451Z,3.30
2022-09-06T09:30:51.810Z,4.30
2022-09-06T09:33:41.309Z,4.15
2022-09-06T09:36:28.067Z,5.80
2022-09-06T09:39:14.860Z,9.20
2022-09-06T09:42:01.949Z,8.03
2022-09-06T09:44:48.736Z,11.02
2022-09-06T09:47:35.544Z,7.63
2022-09-06T09:50:29.285Z,8.67
2022-09-06T09:53:19.119Z,7.85
2022-09-06T09:56:06.131Z,7.30
2022-09-06T09:58:54.627Z,6.07
2022-09-06T10:01:41.395Z,5.22
2022-09-06T10:04:44.803Z,4.38
2022-09-06T10:07:34.085Z,4.68
2022-09-06T10:10:22.270Z,3.88
2022-09-06T10:13:24.142Z,5.47
2022-09-06T10:16:11.135Z,3.70
2022-09-06T10:18:58.002Z,4.53
2022-09-06T10:21:45.309Z,4.83
2022-09-06T10:24:58.796Z,5.95
2022-09-06T10:28:11.403Z,9.50
2022-09-06T10:31:35.602Z,10.60
2022-09-06T10:35:05.115Z,9.55
2022-09-06T10:38:13.388Z,7.18
2022-09-06T10:41:32.912Z,5.95
2022-09-06T10:44:41.261Z,6.03
2022-09-06T10:47:38.708Z,5.32
2022-09-06T10:50:34.718Z,5.60
2022-09-06T10:53:50.604Z,3.38
2022-09-06T10:57:03.663Z,4.70
2022-09-06T10:59:57.057Z,7.45
2022-09-06T11:09:16.183Z,7.78
2022-09-06T11:12:18.395Z,6.57
2022-09-06T11:15:07.454Z,5.97
2022-09-06T11:18:05.787Z,3.40
2022-09-06T11:21:04.439Z,4.35
2022-09-06T11:24:16.556Z,4.60
2022-09-06T11:27:24.988Z,3.72
2022-09-06T11:30:16.628Z,2.78
2022-09-06T11:33:18.591Z,4.50
2022-09-06T11:36:25.094Z,2.92
2022-09-06T11:39:13.035Z,2.60
2022-09-06T11:42:00.690Z,2.33
2022-09-06T11:44:54.118Z,3.50
2022-09-06T11:47:51.641Z,4.32
2022-09-06T11:50:53.899Z,4.97
2022-09-06T11:53:52.011Z,4.72
2022-09-06T11:56:50.913Z,4.82
2022-09-06T11:59:51.380Z,4.35
2022-09-06T12:02:42.415Z,3.65
2022-09-06T12:05:31.595Z,3.72
2022-09-06T12:08:45.154Z,5.18
2022-09-06T12:11:42.286Z,6.25
2022-09-06T12:14:40.375Z,5.53
2022-09-06T12:20:49.164Z,6.75
2022-09-06T12:23:35.872Z,4.32
2022-09-06T12:26:55.618Z,7.13
2022-09-06T12:30:11.751Z,7.10
2022-09-06T12:33:00.235Z,6.18
2022-09-06T12:36:05.833Z,6.80
2022-09-06T12:39:03.035Z,5.57
2022-09-06T12:42:01.947Z,6.10
2022-09-06T12:44:51.724Z,6.70
2022-09-06T12:47:40.074Z,6.88
2022-09-06T12:50:27.939Z,4.75
2022-09-06T12:53:24.887Z,4.55
2022-09-06T12:56:12.707Z,4.00
2022-09-06T12:59:21.979Z,4.18
2022-09-06T13:02:14.804Z,4.32
2022-09-06T13:05:08.867Z,5.10
2022-09-06T13:08:04.281Z,3.75
2022-09-06T13:10:51.388Z,5.72
2022-09-06T13:13:49.028Z,6.68
2022-09-06T13:16:42.659Z,4.25
2022-09-06T13:19:40.469Z,5.72
2022-09-06T13:22:44.589Z,5.32
2022-09-06T13:25:31.379Z,7.00
2022-09-06T13:28:32.474Z,4.97
2022-09-06T13:31:22.436Z,4.45
2022-09-06T13:34:09.233Z,6.40
2022-09-06T13:37:05.924Z,7.77
2022-09-06T13:39:53.244Z,4.50
2022-09-06T13:42:40.198Z,5.75
2022-09-06T13:45:31.678Z,4.97
2022-09-06T13:48:29.175Z,4.70
2022-09-06T13:51:18.132Z,4.30
2022-09-06T13:54:10.620Z,4.82
2022-09-06T13:56:57.793Z,6.43
2022-09-06T13:59:44.875Z,4.88
2022-09-06T14:02:32.407Z,3.58
2022-09-06T14:05:19.187Z,4.53
2022-09-06T14:08:05.920Z,4.83
2022-09-06T14:10:52.891Z,2.73
2022-09-06T14:13:40.376Z,3.38
2022-09-06T14:16:27.147Z,2.53
2022-09-06T14:19:15.036Z,3.40
2022-09-06T14:22:02.707Z,4.68
2022-09-06T14:27:36.568Z,4.65
2022-09-06T14:30:23.343Z,4.45
2022-09-06T14:33:10.133Z,3.22
2022-09-06T14:35:56.884Z,7.55
2022-09-06T14:38:45.229Z,6.20
2022-09-06T14:41:32.024Z,5.70
2022-09-06T14:44:18.791Z,4.63
2022-09-06T14:50:12.326Z,4.00
2022-09-06T14:53:02.638Z,4.35
2022-09-06T14:55:49.423Z,4.40
2022-09-06T14:58:37.863Z,5.17
2022-09-06T15:01:28.589Z,3.28
2022-09-06T15:04:17.395Z,2.92
2022-09-06T15:07:04.225Z,3.15
2022-09-06T15:09:51.045Z,3.90
2022-09-06T15:12:38.160Z,3.20
2022-09-06T15:15:24.959Z,4.85
2022-09-06T15:18:11.877Z,2.92
2022-09-06T15:21:07.767Z,5.43
2022-09-06T15:23:54.723Z,3.83
2022-09-06T15:26:44.386Z,4.35
2022-09-06T15:29:31.198Z,3.03
2022-09-06T15:32:17.996Z,2.55
2022-09-06T15:35:07.791Z,4.45
2022-09-06T15:37:54.538Z,5.05
2022-09-06T15:40:44.367Z,5.37
2022-09-06T15:43:33.477Z,4.47
2022-09-06T15:46:43.909Z,5.18
2022-09-06T15:49:32.384Z,4.60
2022-09-06T15:52:19.228Z,3.90
2022-09-06T15:55:25.352Z,3.40
2022-09-06T15:58:13.159Z,3.10
2022-09-06T16:01:07.851Z,4.60
2022-09-06T16:04:04.880Z,2.80
2022-09-06T16:06:54.707Z,3.35
2022-09-06T16:09:41.552Z,3.42
2022-09-06T16:12:28.297Z,4.60
2022-09-06T16:15:16.485Z,4.30
2022-09-06T16:18:05.249Z,4.18
2022-09-06T16:20:55.608Z,3.80
2022-09-06T16:23:42.852Z,2.70
2022-09-06T16:26:37.934Z,2.90
2022-09-06T16:29:24.814Z,2.80
2022-09-06T16:32:17.202Z,3.33
2022-09-06T16:35:05.859Z,2.17
2022-09-06T16:37:52.890Z,2.08
2022-09-06T16:40:47.284Z,4.47
2022-09-06T16:43:34.341Z,3.53
2022-09-06T16:46:28.716Z,3.63
2022-09-06T16:49:17.477Z,4.47
2022-09-06T16:52:04.339Z,3.53
2022-09-06T16:54:51.071Z,5.70
2022-09-06T16:57:39.269Z,3.92
2022-09-06T17:00:26.062Z,4.97
2022-09-06T17:03:16.691Z,5.73
2022-09-06T17:06:04.412Z,5.38
2022-09-06T17:11:40.193Z,6.22
2022-09-06T17:14:26.959Z,5.45
2022-09-06T17:17:14.607Z,5.80
2022-09-06T17:22:51.836Z,3.78
2022-09-06T17:25:43.267Z,4.40
2022-09-06T17:28:34.234Z,3.78
2022-09-06T17:31:25.712Z,3.75
2022-09-06T17:34:15.283Z,2.90
2022-09-06T17:37:07.655Z,3.90
2022-09-06T17:39:54.586Z,3.22
2022-09-06T17:42:41.405Z,3.47
2022-09-06T17:45:29.253Z,3.20
2022-09-06T17:48:16.059Z,3.42
2022-09-06T17:51:09.757Z,3.17
2022-09-06T17:53:59.727Z,3.75
2022-09-06T17:56:46.554Z,5.40
2022-09-06T17:59:35.770Z,3.43
2022-09-06T18:02:22.995Z,4.68
2022-09-06T18:05:10.083Z,3.80
2022-09-06T18:07:59.456Z,3.85
2022-09-06T18:10:46.891Z,4.88
2022-09-06T18:13:33.640Z,4.50
2022-09-06T18:16:20.898Z,4.40
2022-09-06T18:19:08.854Z,4.28
2022-09-06T18:21:57.108Z,3.60
2022-09-06T18:24:44.110Z,3.60
2022-09-06T18:27:39.790Z,3.10
2022-09-06T18:30:26.583Z,4.35
2022-09-06T18:33:17.162Z,4.13
2022-09-06T18:36:08.245Z,4.82
2022-09-06T18:38:55.043Z,4.63
2022-09-06T18:42:00.347Z,4.15
2022-09-06T18:44:47.161Z,3.17
2022-09-06T18:47:33.959Z,3.10
2022-09-06T18:50:23.575Z,3.93
2022-09-06T18:53:10.977Z,2.33
2022-09-06T18:55:57.707Z,3.60
2022-09-06T18:58:44.503Z,3.53
2022-09-06T19:01:31.522Z,3.90
2022-09-06T19:04:19.704Z,4.90
2022-09-06T19:07:12.312Z,3.35
2022-09-06T19:10:01.758Z,2.50
2022-09-06T19:12:53.204Z,2.67
2022-09-06T19:15:44.460Z,2.25
2022-09-06T19:18:31.519Z,2.47
2022-09-06T19:21:19.959Z,2.13
2022-09-06T19:24:08.655Z,1.90
2022-09-06T19:26:57.705Z,1.77
2022-09-06T19:29:47.472Z,1.60
2022-09-06T19:32:34.948Z,1.58
2022-09-06T19:35:43.638Z,1.55
2022-09-06T19:39:01.922Z,1.70
2022-09-06T19:41:48.699Z,1.15
2022-09-06T19:44:38.080Z,1.38
2022-09-06T19:47:32.868Z,1.20
2022-09-06T19:50:22.030Z,1.67
2022-09-06T19:53:08.823Z,2.30
2022-09-06T19:56:01.243Z,2.65
2022-09-06T19:58:57.203Z,2.25
2022-09-06T20:01:48.443Z,3.47
2022-09-06T20:04:35.286Z,3.47
2022-09-06T20:07:22.327Z,2.17
2022-09-06T20:10:09.629Z,1.63
2022-09-06T20:12:56.386Z,1.30
2022-09-06T20:15:43.121Z,1.45
2022-09-06T20:18:30.096Z,1.40
2022-09-06T20:21:25.797Z,1.48
2022-09-06T20:24:15.679Z,1.42
2022-09-06T20:27:02.411Z,1.90
2022-09-06T20:29:54.720Z,1.63
2022-09-06T20:32:44.267Z,1.60
2022-09-06T20:35:36.457Z,1.98
2022-09-06T20:38:36.010Z,2.10
2022-09-06T20:41:24.715Z,1.35
2022-09-06T20:44:14.043Z,1.70
2022-09-06T20:47:03.804Z,1.40
2022-09-06T20:49:55.801Z,1.30
2022-09-06T20:52:42.527Z,1.67
2022-09-06T20:55:29.300Z,2.00
2022-09-06T20:58:16.068Z,1.92
2022-09-06T21:01:16.911Z,1.88
2022-09-06T21:04:09.630Z,1.50
2022-09-06T21:07:00.065Z,1.90
2022-09-06T21:09:51.951Z,1.75
2022-09-06T21:12:40.410Z,1.70
2022-09-06T21:15:42.824Z,1.40
2022-09-06T21:18:32.537Z,1.30
2022-09-06T21:21:22.464Z,1.20
2022-09-06T21:24:12.633Z,1.80
2022-09-06T21:26:59.391Z,1.30
2022-09-06T21:29:46.107Z,1.60
2022-09-06T21:32:38.271Z,1.50
2022-09-06T21:35:27.835Z,1.25
2022-09-06T21:38:14.900Z,1.42
2022-09-06T21:41:02.871Z,1.67
2022-09-06T21:43:54.837Z,1.70
2022-09-06T21:46:47.226Z,1.45
2022-09-06T21:49:36.203Z,2.00
2022-09-06T21:52:29.112Z,1.50
2022-09-06T21:55:21.588Z,3.03
2022-09-06T21:58:09.843Z,4.80
2022-09-06T22:00:59.246Z,4.07
2022-09-06T22:03:46.334Z,3.55
2022-09-06T22:06:34.791Z,2.95
2022-09-06T22:09:21.941Z,3.03
2022-09-06T22:12:08.768Z,2.42
2022-09-06T22:14:55.523Z,2.67
2022-09-06T22:17:42.288Z,3.13
2022-09-06T22:20:29.076Z,3.75
2022-09-06T22:23:15.832Z,4.47
2022-09-06T22:26:07.086Z,4.72
2022-09-06T22:28:56.342Z,6.43
2022-09-06T22:31:43.510Z,4.88
2022-09-06T22:34:30.364Z,4.55
2022-09-06T22:37:17.076Z,3.90
2022-09-06T22:40:04.284Z,6.47
2022-09-06T22:42:51.097Z,9.68
2022-09-06T22:45:37.843Z,7.13
2022-09-06T22:48:24.628Z,5.35
2022-09-06T22:51:11.856Z,6.93
2022-09-06T22:53:58.628Z,7.03
2022-09-06T22:56:45.377Z,6.18
2022-09-06T22:59:35.480Z,7.55
2022-09-06T23:02:22.274Z,6.90
2022-09-06T23:05:09.256Z,6.28
2022-09-06T23:07:57.624Z,7.33
2022-09-06T23:10:44.687Z,5.18
2022-09-06T23:13:31.542Z,4.75
2022-09-06T23:16:19.360Z,6.47
2022-09-06T23:19:06.683Z,8.30
2022-09-06T23:21:53.435Z,7.25
2022-09-06T23:24:40.195Z,6.28
2022-09-06T23:27:27.482Z,6.90
2022-09-06T23:30:14.791Z,7.20
2022-09-06T23:33:01.529Z,7.95
2022-09-06T23:35:48.335Z,8.25
2022-09-06T23:38:36.601Z,8.20
2022-09-06T23:41:24.136Z,6.82
2022-09-06T23:44:11.047Z,5.00
2022-09-06T23:46:57.903Z,5.77
2022-09-06T23:49:45.366Z,6.40
2022-09-06T23:52:32.126Z,4.78
2022-09-06T23:55:18.850Z,4.40
2022-09-06T23:58:06.016Z,4.63
